createdAt,value
2019-01-12T00:01:51.295Z,3.40
2019-01-12T00:07:16.140Z,4.23
2019-01-12T00:09:45.781Z,2.83
2019-01-12T00:12:15.473Z,4.07
2019-01-12T00:14:45.201Z,2.43
2019-01-12T00:17:17.118Z,4.83
2019-01-12T00:20:06.060Z,1.80
2019-01-12T00:22:58.486Z,2.00
2019-01-12T00:28:28.435Z,2.90
2019-01-12T00:33:51.733Z,3.97
2019-01-12T00:36:32.948Z,1.83
2019-01-12T00:39:02.533Z,2.53
2019-01-12T00:41:31.993Z,2.97
2019-01-12T00:44:01.578Z,3.40
2019-01-12T00:46:53.055Z,4.17
2019-01-12T00:49:23.169Z,3.10
2019-01-12T00:51:53.047Z,1.47
2019-01-12T00:54:23.242Z,1.53
2019-01-12T00:57:12.341Z,3.53
2019-01-12T01:00:03.063Z,2.77
2019-01-12T01:02:32.203Z,2.20
2019-01-12T01:05:01.671Z,2.53
2019-01-12T01:07:34.935Z,2.70
2019-01-12T01:10:26.281Z,3.07
2019-01-12T01:13:22.677Z,3.40
2019-01-12T01:15:52.449Z,5.03
2019-01-12T01:18:21.981Z,1.93
2019-01-12T01:20:51.823Z,2.77
2019-01-12T01:23:41.429Z,2.40
2019-01-12T01:26:22.847Z,2.93
2019-01-12T01:31:49.634Z,2.60
2019-01-12T01:34:19.774Z,2.30
2019-01-12T01:36:52.301Z,3.43
2019-01-12T01:39:24.890Z,0.93
2019-01-12T01:42:15.290Z,1.97
2019-01-12T01:44:57.132Z,3.43
2019-01-12T01:49:53.687Z,1.80
2019-01-12T01:52:34.645Z,2.13
2019-01-12T01:55:15.577Z,2.23
2019-01-12T01:57:47.572Z,2.93
2019-01-12T02:00:36.626Z,1.30
2019-01-12T02:03:17.448Z,3.47
2019-01-12T02:05:59.453Z,2.07
2019-01-12T02:11:27.641Z,4.10
2019-01-12T02:14:05.876Z,1.73
2019-01-12T02:16:56.456Z,3.33
2019-01-12T02:19:34.186Z,5.40
2019-01-12T02:24:43.651Z,2.60
2019-01-12T02:32:38.055Z,1.93
2019-01-12T02:37:52.022Z,1.93
2019-01-12T02:40:21.939Z,1.30
2019-01-12T02:43:10.557Z,1.77
2019-01-12T02:45:40.378Z,1.57
2019-01-12T02:48:30.941Z,2.43
2019-01-12T02:59:36.922Z,0.90
2019-01-12T03:02:18.409Z,2.47
2019-01-12T03:04:59.449Z,2.40
2019-01-12T03:07:31.500Z,1.30
2019-01-12T03:10:20.101Z,2.47
2019-01-12T03:12:49.893Z,1.90
2019-01-12T03:15:26.028Z,2.13
2019-01-12T03:18:00.589Z,1.40
2019-01-12T03:20:59.302Z,1.47
2019-01-12T03:23:31.523Z,1.70
2019-01-12T03:26:01.249Z,3.10
2019-01-12T03:28:36.777Z,1.30
2019-01-12T03:31:06.536Z,2.03
2019-01-12T03:33:36.454Z,3.53
2019-01-12T03:36:06.676Z,2.93
2019-01-12T03:38:57.097Z,2.40
2019-01-12T03:41:30.246Z,2.63
2019-01-12T03:44:00.003Z,2.77
2019-01-12T03:46:34.166Z,3.17
2019-01-12T03:49:27.703Z,2.57
2019-01-12T03:52:16.444Z,1.53
2019-01-12T03:54:57.492Z,1.33
2019-01-12T03:57:29.639Z,3.20
2019-01-12T04:02:51.251Z,2.53
2019-01-12T04:05:41.555Z,1.37
2019-01-12T04:08:30.496Z,2.07
2019-01-12T04:14:12.739Z,2.20
2019-01-12T04:16:50.838Z,5.30
2019-01-12T04:19:50.236Z,2.27
2019-01-12T04:22:22.546Z,5.30
2019-01-12T04:36:41.583Z,1.00
2019-01-12T04:39:14.538Z,1.70
2019-01-12T04:42:12.599Z,3.43
2019-01-12T04:44:51.698Z,2.87
2019-01-12T04:47:40.453Z,4.10
2019-01-12T04:50:22.044Z,1.83
2019-01-12T04:53:11.449Z,3.20
2019-01-12T04:59:03.583Z,3.20
2019-01-12T05:01:39.165Z,2.30
2019-01-12T05:04:13.965Z,3.67
2019-01-12T05:07:23.668Z,2.00
2019-01-12T05:10:17.166Z,4.30
2019-01-12T05:12:46.979Z,1.17
2019-01-12T05:18:18.793Z,3.60
2019-01-12T05:26:25.558Z,4.50
2019-01-12T05:31:58.337Z,3.83
2019-01-12T05:41:19.422Z,4.73
2019-01-12T05:43:49.060Z,2.73
2019-01-12T05:46:18.950Z,4.40
2019-01-12T05:49:07.944Z,3.20
2019-01-12T05:54:26.811Z,2.80
2019-01-12T05:57:22.879Z,3.67
2019-01-12T06:00:05.002Z,2.60
2019-01-12T06:06:07.246Z,5.30
2019-01-12T06:11:53.486Z,3.57
2019-01-12T06:14:44.904Z,4.07
2019-01-12T06:20:36.834Z,3.37
2019-01-12T06:23:06.808Z,3.17
2019-01-12T06:28:46.213Z,4.27
2019-01-12T06:31:57.360Z,1.83
2019-01-12T06:40:01.097Z,3.53
2019-01-12T06:45:25.980Z,1.47
2019-01-12T06:50:56.508Z,3.47
2019-01-12T06:53:45.248Z,3.73
2019-01-12T06:56:30.776Z,2.73
2019-01-12T06:59:12.559Z,4.87
2019-01-12T07:02:09.955Z,4.10
2019-01-12T07:04:48.739Z,4.13
2019-01-12T07:07:38.809Z,4.77
2019-01-12T07:10:11.740Z,3.17
2019-01-12T07:15:48.299Z,4.43
2019-01-12T07:18:40.328Z,1.40
2019-01-12T07:21:21.603Z,2.90
2019-01-12T07:24:10.447Z,2.23
2019-01-12T07:27:01.156Z,2.43
2019-01-12T07:36:39.865Z,2.47
2019-01-12T07:39:14.814Z,2.43
2019-01-12T07:42:06.494Z,2.80
2019-01-12T07:44:39.472Z,2.60
2019-01-12T07:47:30.885Z,5.70
2019-01-12T07:50:20.448Z,5.37
2019-01-12T07:53:03.067Z,3.97
2019-01-12T07:56:11.042Z,3.60
2019-01-12T08:01:53.842Z,3.57
2019-01-12T08:07:59.467Z,3.00
2019-01-12T08:13:25.240Z,2.13
2019-01-12T08:19:04.880Z,2.53
2019-01-12T08:22:00.196Z,2.43
2019-01-12T08:30:39.796Z,6.07
2019-01-12T08:33:14.523Z,1.97
2019-01-12T08:35:47.604Z,2.50
2019-01-12T08:38:18.933Z,2.37
2019-01-12T08:43:38.598Z,3.27
2019-01-12T08:46:14.402Z,5.47
2019-01-12T08:49:05.097Z,4.23
2019-01-12T08:57:30.727Z,3.10
2019-01-12T09:03:33.892Z,5.90
2019-01-12T09:05:50.179Z,3.70
2019-01-12T09:08:21.039Z,3.93
2019-01-12T09:10:54.447Z,2.70
2019-01-12T09:13:24.557Z,3.93
2019-01-12T09:15:57.002Z,2.70
2019-01-12T09:18:45.807Z,2.50
2019-01-12T09:21:15.634Z,3.47
2019-01-12T09:24:04.140Z,3.00
2019-01-12T09:26:45.185Z,4.87
2019-01-12T09:29:14.791Z,2.63
2019-01-12T09:31:44.567Z,2.43
2019-01-12T09:34:14.271Z,4.03
2019-01-12T09:37:04.296Z,2.60
2019-01-12T09:42:27.449Z,2.70
2019-01-12T09:44:56.974Z,5.27
2019-01-12T09:47:26.718Z,5.47
2019-01-12T09:50:16.240Z,5.77
2019-01-12T09:58:06.320Z,3.73
2019-01-12T10:00:36.002Z,2.90
2019-01-12T10:03:05.420Z,2.60
2019-01-12T10:05:34.928Z,3.30
2019-01-12T10:08:04.691Z,2.43
2019-01-12T10:10:34.144Z,1.90
2019-01-12T10:13:22.645Z,2.93
2019-01-12T10:15:52.305Z,4.43
2019-01-12T10:18:41.314Z,3.10
2019-01-12T10:21:10.769Z,3.77
2019-01-12T10:23:40.515Z,2.13
2019-01-12T10:26:10.063Z,2.70
2019-01-12T10:28:40.146Z,2.50
2019-01-12T10:31:28.743Z,2.87
2019-01-12T10:33:58.316Z,3.03
2019-01-12T10:36:27.875Z,2.77
2019-01-12T10:41:32.227Z,1.17
2019-01-12T10:44:01.747Z,4.03
2019-01-12T10:46:31.241Z,2.10
2019-01-12T10:49:00.755Z,2.00
2019-01-12T10:51:30.416Z,3.97
2019-01-12T10:56:43.844Z,2.03
2019-01-12T10:59:32.439Z,2.47
2019-01-12T11:02:01.923Z,2.53
2019-01-12T11:04:31.337Z,2.40
2019-01-12T11:07:00.940Z,2.77
2019-01-12T11:09:30.691Z,3.83
2019-01-12T11:12:00.199Z,2.70
2019-01-12T11:14:30.091Z,2.30
2019-01-12T11:16:59.700Z,1.53
2019-01-12T11:19:32.620Z,4.50
2019-01-12T11:22:02.019Z,2.70
2019-01-12T11:27:12.175Z,3.20
2019-01-12T11:32:15.847Z,2.63
2019-01-12T11:34:45.260Z,3.20
2019-01-12T11:40:03.477Z,1.43
2019-01-12T11:42:32.896Z,1.60
2019-01-12T11:45:02.351Z,2.33
2019-01-12T11:47:31.823Z,4.37
2019-01-12T11:53:09.995Z,1.80
2019-01-12T11:55:40.308Z,3.37
2019-01-12T11:58:09.720Z,3.20
2019-01-12T12:00:39.348Z,3.10
2019-01-12T12:03:08.958Z,2.53
2019-01-12T12:05:38.482Z,4.33
2019-01-12T12:08:07.966Z,1.63
2019-01-12T12:10:37.545Z,4.93
2019-01-12T12:13:07.132Z,6.40
2019-01-12T12:15:36.594Z,1.50
2019-01-12T12:18:06.094Z,2.77
2019-01-12T12:20:38.129Z,4.17
2019-01-12T12:23:07.682Z,2.20
2019-01-12T12:25:37.595Z,2.30
2019-01-12T12:28:07.115Z,3.53
2019-01-12T12:30:39.209Z,3.07
2019-01-12T12:33:08.393Z,4.23
2019-01-12T12:35:40.249Z,2.83
2019-01-12T12:38:09.701Z,3.03
2019-01-12T12:40:39.585Z,2.03
2019-01-12T12:43:09.411Z,4.53
2019-01-12T12:45:39.263Z,5.63
2019-01-12T12:48:08.859Z,2.97
2019-01-12T12:50:38.685Z,4.47
2019-01-12T12:53:08.440Z,3.83
2019-01-12T12:58:31.795Z,6.97
2019-01-12T13:01:01.417Z,4.13
2019-01-12T13:03:30.859Z,4.40
2019-01-12T13:06:00.418Z,6.10
2019-01-12T13:11:39.052Z,3.50
2019-01-12T13:17:02.975Z,7.53
2019-01-12T13:19:32.403Z,5.43
2019-01-12T13:22:01.837Z,6.33
2019-01-12T13:24:31.313Z,4.87
2019-01-12T13:27:01.051Z,6.33
2019-01-12T13:29:30.494Z,4.23
2019-01-12T13:31:59.981Z,5.53
2019-01-12T13:34:29.392Z,7.03
2019-01-12T13:36:58.953Z,4.47
2019-01-12T13:39:32.135Z,6.97
2019-01-12T13:42:01.075Z,5.17
2019-01-12T13:44:30.660Z,3.37
2019-01-12T13:47:00.193Z,6.53
2019-01-12T13:49:29.741Z,2.47
2019-01-12T13:51:59.943Z,3.37
2019-01-12T13:54:29.379Z,4.17
2019-01-12T13:56:57.876Z,3.97
2019-01-12T13:59:46.459Z,1.80
2019-01-12T14:02:27.478Z,5.57
2019-01-12T14:04:57.073Z,5.67
2019-01-12T14:07:26.621Z,5.13
2019-01-12T14:13:11.459Z,10.10
2019-01-12T14:16:01.258Z,3.73
2019-01-12T14:18:30.899Z,5.37
2019-01-12T14:21:00.455Z,4.30
2019-01-12T14:23:30.010Z,5.97
2019-01-12T14:25:59.465Z,5.20
2019-01-12T14:28:30.867Z,4.60
2019-01-12T14:33:39.452Z,5.50
2019-01-12T14:39:21.903Z,3.83
2019-01-12T14:41:51.406Z,4.73
2019-01-12T14:44:20.814Z,2.07
2019-01-12T14:46:50.301Z,5.43
2019-01-12T14:49:38.849Z,5.50
2019-01-12T14:52:19.512Z,5.87
2019-01-12T14:55:00.376Z,5.33
2019-01-12T14:57:30.392Z,5.53
2019-01-12T15:00:19.662Z,4.87
2019-01-12T15:03:00.850Z,4.10
2019-01-12T15:05:32.956Z,4.90
2019-01-12T15:08:02.493Z,5.10
2019-01-12T15:10:32.082Z,5.57
2019-01-12T15:13:20.622Z,6.50
2019-01-12T15:15:50.281Z,5.73
2019-01-12T15:18:41.129Z,5.10
2019-01-12T15:21:24.968Z,4.30
2019-01-12T15:24:06.651Z,6.93
2019-01-12T15:26:36.498Z,6.90
2019-01-12T15:29:06.334Z,4.50
2019-01-12T15:31:39.627Z,5.50
2019-01-12T15:34:09.563Z,7.20
2019-01-12T15:36:40.630Z,6.00
2019-01-12T15:39:10.140Z,3.80
2019-01-12T15:41:43.134Z,6.73
2019-01-12T15:44:12.744Z,2.73
2019-01-12T15:49:37.018Z,4.93
2019-01-12T15:55:11.538Z,4.43
2019-01-12T15:57:43.118Z,6.27
2019-01-12T16:00:47.779Z,4.20
2019-01-12T16:03:28.966Z,4.00
2019-01-12T16:06:01.708Z,4.47
2019-01-12T16:08:31.556Z,5.00
2019-01-12T16:11:01.434Z,4.83
2019-01-12T16:13:31.151Z,5.60
2019-01-12T16:16:10.060Z,8.37
2019-01-12T16:21:17.551Z,3.90
2019-01-12T16:24:20.236Z,4.53
2019-01-12T16:27:04.672Z,5.00
2019-01-12T16:29:34.518Z,2.83
2019-01-12T16:32:06.051Z,4.53
2019-01-12T16:37:12.896Z,4.50
2019-01-12T16:39:42.670Z,3.67
2019-01-12T16:42:31.450Z,6.43
2019-01-12T16:45:02.093Z,3.80
2019-01-12T16:50:25.396Z,4.50
2019-01-12T16:52:55.784Z,8.70
2019-01-12T16:55:44.308Z,3.73
2019-01-12T16:58:18.476Z,4.67
2019-01-12T17:00:48.274Z,8.93
2019-01-12T17:03:18.035Z,4.33
2019-01-12T17:05:47.594Z,4.63
2019-01-12T17:08:17.323Z,6.37
2019-01-12T17:11:05.785Z,9.67
2019-01-12T17:13:46.778Z,4.20
2019-01-12T17:16:16.902Z,6.17
2019-01-12T17:18:46.496Z,8.03
2019-01-12T17:21:16.092Z,6.90
2019-01-12T17:24:05.044Z,5.07
2019-01-12T17:26:34.856Z,6.60
2019-01-12T17:29:18.756Z,5.23
2019-01-12T17:31:36.377Z,5.77
2019-01-12T17:34:06.088Z,4.93
2019-01-12T17:39:31.517Z,6.93
2019-01-12T17:42:01.262Z,4.63
2019-01-12T17:44:31.071Z,8.30
2019-01-12T17:47:01.020Z,5.07
2019-01-12T17:49:32.759Z,5.73
2019-01-12T17:52:22.160Z,7.73
2019-01-12T17:54:55.780Z,9.33
2019-01-12T17:57:29.629Z,3.53
2019-01-12T18:05:57.270Z,7.33
2019-01-12T18:08:27.267Z,6.70
2019-01-12T18:11:20.226Z,6.20
2019-01-12T18:13:49.825Z,6.30
2019-01-12T18:16:22.792Z,5.93
2019-01-12T18:18:52.558Z,6.43
2019-01-12T18:21:31.119Z,6.97
2019-01-12T18:24:01.201Z,6.20
2019-01-12T18:26:34.154Z,7.13
2019-01-12T18:29:03.951Z,7.87
2019-01-12T18:31:34.038Z,4.77
2019-01-12T18:35:11.818Z,9.10
2019-01-12T18:40:16.106Z,7.63
2019-01-12T18:42:45.812Z,4.90
2019-01-12T18:45:19.815Z,6.97
2019-01-12T18:47:49.529Z,9.47
2019-01-12T18:50:24.418Z,8.27
2019-01-12T18:53:13.149Z,7.17
2019-01-12T18:55:54.662Z,2.87
2019-01-12T18:58:26.578Z,6.43
2019-01-12T19:00:56.979Z,5.90
2019-01-12T19:03:26.780Z,5.00
2019-01-12T19:05:59.545Z,6.63
2019-01-12T19:08:29.793Z,9.10
2019-01-12T19:13:34.800Z,5.40
2019-01-12T19:16:04.828Z,6.13
2019-01-12T19:18:34.469Z,6.63
2019-01-12T19:26:28.660Z,10.07
2019-01-12T19:29:09.559Z,4.87
2019-01-12T19:31:39.705Z,8.47
2019-01-12T19:34:09.496Z,5.80
2019-01-12T19:36:41.001Z,7.67
2019-01-12T19:42:00.104Z,6.37
2019-01-12T19:44:30.230Z,5.57
2019-01-12T19:49:52.067Z,6.53
2019-01-12T19:52:24.642Z,7.03
2019-01-12T19:54:56.809Z,6.23
2019-01-12T19:57:26.695Z,5.90
2019-01-12T19:59:58.408Z,6.47
2019-01-12T20:02:47.625Z,6.87
2019-01-12T20:05:36.502Z,9.53
2019-01-12T20:08:18.176Z,8.00
2019-01-12T20:10:53.908Z,5.97
2019-01-12T20:13:42.638Z,8.40
2019-01-12T20:16:25.018Z,8.47
2019-01-12T20:19:13.595Z,8.77
2019-01-12T20:21:43.559Z,6.27
2019-01-12T20:27:25.011Z,9.53
2019-01-12T20:30:14.434Z,7.93
2019-01-12T20:33:15.850Z,6.87
2019-01-12T20:36:23.467Z,9.93
2019-01-12T20:39:30.898Z,6.93
2019-01-12T20:42:39.356Z,6.37
2019-01-12T20:45:49.068Z,8.33
2019-01-12T20:48:30.186Z,5.20
2019-01-12T20:51:37.611Z,8.70
2019-01-12T20:54:48.815Z,7.93
2019-01-12T20:57:56.559Z,10.37
2019-01-12T21:00:38.018Z,6.87
2019-01-12T21:03:46.393Z,7.23
2019-01-12T21:06:38.423Z,8.67
2019-01-12T21:09:56.111Z,8.07
2019-01-12T21:13:07.155Z,6.53
2019-01-12T21:18:49.795Z,8.23
2019-01-12T21:21:40.345Z,7.93
2019-01-12T21:24:50.014Z,7.40
2019-01-12T21:27:38.794Z,6.17
2019-01-12T21:30:36.124Z,8.50
2019-01-12T21:46:35.218Z,12.13
2019-01-12T21:49:38.659Z,7.60
2019-01-12T21:52:08.299Z,7.93
2019-01-12T21:54:39.225Z,9.70
2019-01-12T22:02:46.209Z,7.57
2019-01-12T22:05:15.818Z,9.60
2019-01-12T22:07:45.304Z,6.73
2019-01-12T22:10:19.329Z,8.67
2019-01-12T22:12:48.606Z,7.30
2019-01-12T22:15:45.141Z,6.23
2019-01-12T22:18:38.091Z,10.70
2019-01-12T22:21:28.878Z,7.63
2019-01-12T22:24:18.137Z,11.17
2019-01-12T22:26:49.403Z,10.33
2019-01-12T22:29:51.855Z,7.87
2019-01-12T22:32:36.469Z,9.27
2019-01-12T22:35:25.782Z,10.37
2019-01-12T22:38:44.884Z,11.60
2019-01-12T22:41:14.479Z,9.33
2019-01-12T22:43:43.927Z,6.97
2019-01-12T22:46:13.422Z,7.93
2019-01-12T22:48:42.849Z,8.90
2019-01-12T22:51:13.886Z,7.33
2019-01-12T22:53:45.373Z,11.07
2019-01-12T22:56:34.496Z,9.60
2019-01-12T22:59:06.038Z,9.97
2019-01-12T23:01:58.432Z,8.33
2019-01-12T23:04:29.243Z,7.43
2019-01-12T23:07:11.401Z,7.07
2019-01-12T23:12:12.184Z,7.60
2019-01-12T23:14:41.791Z,10.10
2019-01-12T23:17:12.669Z,10.83
2019-01-12T23:19:42.094Z,8.63
2019-01-12T23:22:11.668Z,11.63
2019-01-12T23:27:31.635Z,26.67
2019-01-12T23:30:06.261Z,23.90
2019-01-12T23:32:35.992Z,19.50
2019-01-12T23:35:09.444Z,18.20
2019-01-12T23:37:39.406Z,32.80
2019-01-12T23:43:06.807Z,36.43
2019-01-12T23:45:59.584Z,43.60
2019-01-12T23:48:17.068Z,16.37
2019-01-12T23:50:46.541Z,36.27
2019-01-12T23:53:16.095Z,16.37
2019-01-12T23:55:45.579Z,25.30
2019-01-12T23:58:15.080Z,12.37
